Terminal Aerodrome Forecast
Issued by NWS Omaha/Valley, NE

Home | Current Version | Previous Version | Text Only | Print | Product List | Glossary Off
Versions: 1 2 3 4 5 6 7 8 9 10 11 12 13 14 15 16 17 18 19

000
FTUS43 KOAX 211650 AAD
TAFOFK
TAF AMD
KOFK 211650Z 2117/2212 31014G22KT P6SM -SHRA VCTS BKN025CB OVC050
     FM211800 31015G23KT P6SM BKN045
     FM212200 31010KT P6SM SCT250=

USA.gov is the U.S. government's official web portal to all federal, state and local government web resources and services.